createdAt,value
2019-02-27T00:00:52.264Z,34.80
2019-02-27T00:03:34.185Z,37.33
2019-02-27T00:06:26.382Z,36.77
2019-02-27T00:09:07.708Z,36.87
2019-02-27T00:11:48.396Z,39.77
2019-02-27T00:14:31.161Z,39.20
2019-02-27T00:17:15.072Z,38.90
2019-02-27T00:20:04.103Z,38.93
2019-02-27T00:22:44.249Z,38.50
2019-02-27T00:25:25.242Z,38.13
2019-02-27T00:28:12.754Z,38.17
2019-02-27T00:30:53.958Z,38.00
2019-02-27T00:33:35.388Z,38.50
2019-02-27T00:36:22.791Z,38.33
2019-02-27T00:39:03.569Z,36.87
2019-02-27T00:41:46.015Z,36.57
2019-02-27T00:44:27.466Z,38.50
2019-02-27T00:47:09.977Z,38.90
2019-02-27T00:49:51.661Z,36.50
2019-02-27T00:52:32.965Z,38.27
2019-02-27T00:55:12.662Z,38.23
2019-02-27T00:58:01.164Z,37.40
2019-02-27T01:01:04.330Z,38.23
2019-02-27T01:07:07.640Z,38.37
2019-02-27T01:10:12.384Z,37.63
2019-02-27T01:12:57.682Z,39.10
2019-02-27T01:15:37.300Z,37.17
2019-02-27T01:18:18.718Z,37.27
2019-02-27T01:21:23.318Z,38.80
2019-02-27T01:24:04.870Z,37.43
2019-02-27T01:26:49.717Z,36.40
2019-02-27T01:29:34.689Z,35.70
2019-02-27T01:32:16.916Z,35.93
2019-02-27T01:34:58.204Z,34.37
2019-02-27T01:37:42.938Z,33.73
2019-02-27T01:40:23.910Z,34.20
2019-02-27T01:43:06.257Z,33.20
2019-02-27T01:48:56.575Z,32.30
2019-02-27T01:51:38.214Z,32.60
2019-02-27T01:54:07.711Z,32.37
2019-02-27T01:57:15.279Z,34.50
2019-02-27T02:00:03.789Z,33.87
2019-02-27T02:02:49.268Z,33.37
2019-02-27T02:05:30.658Z,33.13
2019-02-27T02:08:34.017Z,33.33
2019-02-27T02:11:15.236Z,34.23
2019-02-27T02:13:56.608Z,34.13
2019-02-27T02:16:37.621Z,34.87
2019-02-27T02:19:19.008Z,36.87
2019-02-27T02:22:01.902Z,37.30
2019-02-27T02:24:43.172Z,37.50
2019-02-27T02:27:23.805Z,36.13
2019-02-27T02:30:05.085Z,35.80
2019-02-27T02:32:59.722Z,36.40
2019-02-27T02:35:40.785Z,37.67
2019-02-27T02:38:22.178Z,35.50
2019-02-27T02:41:07.994Z,35.83
2019-02-27T02:43:46.256Z,36.70
2019-02-27T02:46:53.813Z,36.00
2019-02-27T02:49:50.025Z,34.63
2019-02-27T02:52:30.844Z,36.43
2019-02-27T02:55:12.521Z,34.63
2019-02-27T02:57:54.048Z,36.17
2019-02-27T03:00:37.858Z,35.77
2019-02-27T03:03:16.975Z,34.33
2019-02-27T03:05:59.692Z,36.13
2019-02-27T03:08:41.417Z,32.90
2019-02-27T03:11:22.853Z,35.83
2019-02-27T03:14:04.339Z,34.33
2019-02-27T03:16:45.762Z,36.57
2019-02-27T03:19:53.324Z,35.93
2019-02-27T03:23:00.817Z,34.83
2019-02-27T03:25:41.985Z,36.87
2019-02-27T03:28:23.486Z,36.37
2019-02-27T03:31:04.839Z,36.70
2019-02-27T03:33:45.594Z,36.93
2019-02-27T03:36:26.861Z,35.67
2019-02-27T03:39:07.437Z,37.70
2019-02-27T03:41:48.104Z,37.07
2019-02-27T03:44:57.046Z,35.40
2019-02-27T03:47:38.234Z,37.00
2019-02-27T03:50:19.896Z,37.17
2019-02-27T03:53:01.412Z,35.20
2019-02-27T03:55:44.137Z,34.97
2019-02-27T03:58:30.444Z,37.20
2019-02-27T04:01:09.547Z,36.93
2019-02-27T04:03:54.142Z,35.50
2019-02-27T04:06:33.105Z,37.07
2019-02-27T04:09:19.911Z,36.53
2019-02-27T04:11:47.471Z,36.43
2019-02-27T04:14:42.048Z,37.37
2019-02-27T04:17:52.359Z,37.80
2019-02-27T04:20:36.166Z,37.23
2019-02-27T04:23:16.806Z,37.57
2019-02-27T04:25:58.465Z,37.20
2019-02-27T04:28:55.323Z,39.97
2019-02-27T04:31:38.287Z,40.03
2019-02-27T04:34:19.695Z,38.53
2019-02-27T04:37:02.476Z,36.37
2019-02-27T04:39:46.201Z,36.50
2019-02-27T04:42:27.181Z,39.43
2019-02-27T04:45:12.005Z,37.10
2019-02-27T04:47:51.040Z,36.37
2019-02-27T04:50:38.643Z,38.20
2019-02-27T04:53:23.492Z,38.03
2019-02-27T04:56:04.713Z,36.90
2019-02-27T04:58:52.536Z,36.03
2019-02-27T05:01:36.407Z,36.30
2019-02-27T05:04:22.721Z,36.00
2019-02-27T05:07:03.964Z,35.53
2019-02-27T05:09:45.286Z,36.00
2019-02-27T05:12:14.840Z,34.63
2019-02-27T05:18:18.383Z,34.03
2019-02-27T05:20:59.075Z,34.63
2019-02-27T05:23:40.197Z,34.80
2019-02-27T05:26:20.938Z,35.00
2019-02-27T05:29:01.660Z,35.47
2019-02-27T05:31:42.786Z,34.43
2019-02-27T05:34:22.221Z,34.87
2019-02-27T05:37:05.292Z,34.27
2019-02-27T05:39:45.777Z,34.00
2019-02-27T05:45:31.176Z,33.33
2019-02-27T05:48:10.508Z,33.50
2019-02-27T05:50:51.995Z,31.20
2019-02-27T05:53:33.588Z,31.43
2019-02-27T05:56:16.267Z,30.93
2019-02-27T05:58:58.905Z,29.73
2019-02-27T06:01:59.376Z,29.40
2019-02-27T06:04:40.026Z,28.63
2019-02-27T06:07:23.114Z,29.43
2019-02-27T06:10:04.597Z,28.77
2019-02-27T06:12:45.279Z,27.53
2019-02-27T06:15:28.620Z,27.67
2019-02-27T06:18:08.978Z,27.03
2019-02-27T06:20:50.347Z,28.50
2019-02-27T06:23:30.976Z,29.40
2019-02-27T06:26:12.348Z,37.67
2019-02-27T06:28:41.954Z,48.87
2019-02-27T06:31:30.542Z,45.93
2019-02-27T06:34:11.508Z,43.13
2019-02-27T06:36:53.029Z,39.50
2019-02-27T06:39:34.433Z,38.33
2019-02-27T06:42:16.399Z,37.50
2019-02-27T06:44:57.736Z,31.47
2019-02-27T06:47:39.034Z,31.50
2019-02-27T06:50:25.170Z,29.10
2019-02-27T06:53:03.553Z,27.57
2019-02-27T06:55:44.819Z,27.13
2019-02-27T06:58:26.424Z,28.40
2019-02-27T07:01:09.681Z,28.93
2019-02-27T07:03:52.151Z,29.60
2019-02-27T07:06:36.866Z,29.90
2019-02-27T07:09:18.233Z,26.00
2019-02-27T07:11:59.849Z,23.27
2019-02-27T07:14:29.334Z,24.57
2019-02-27T07:17:17.907Z,22.93
2019-02-27T07:20:08.780Z,21.67
2019-02-27T07:22:50.993Z,23.40
2019-02-27T07:25:32.097Z,23.53
2019-02-27T07:28:20.925Z,24.57
2019-02-27T07:31:02.212Z,24.20
2019-02-27T07:33:43.710Z,23.90
2019-02-27T07:36:25.857Z,23.07
2019-02-27T07:39:43.126Z,23.73
2019-02-27T07:42:24.471Z,20.57
2019-02-27T07:45:08.084Z,20.20
2019-02-27T07:47:49.241Z,19.03
2019-02-27T07:50:29.908Z,19.50
2019-02-27T07:53:17.458Z,18.40
2019-02-27T07:55:56.117Z,18.80
2019-02-27T07:58:38.096Z,19.13
2019-02-27T08:01:20.942Z,19.07
2019-02-27T08:04:01.719Z,19.43
2019-02-27T08:06:44.332Z,18.97
2019-02-27T08:09:15.927Z,20.87
2019-02-27T08:12:00.646Z,20.67
2019-02-27T08:14:41.434Z,19.90
2019-02-27T08:17:23.534Z,18.27
2019-02-27T08:20:04.750Z,16.57
2019-02-27T08:22:45.752Z,16.50
2019-02-27T08:25:27.102Z,15.93
2019-02-27T08:28:08.550Z,16.00
2019-02-27T08:30:37.935Z,14.63
2019-02-27T08:33:26.381Z,14.53
2019-02-27T08:36:14.792Z,15.20
2019-02-27T08:38:55.763Z,14.13
2019-02-27T08:41:36.277Z,14.03
2019-02-27T08:44:17.814Z,14.37
2019-02-27T08:46:58.402Z,14.43
2019-02-27T08:49:40.027Z,13.70
2019-02-27T08:52:20.748Z,13.73
2019-02-27T08:55:05.442Z,13.57
2019-02-27T08:57:44.118Z,14.27
2019-02-27T09:00:25.588Z,14.83
2019-02-27T09:03:06.946Z,13.10
2019-02-27T09:05:36.378Z,12.70
2019-02-27T09:08:25.560Z,12.97
2019-02-27T09:11:06.843Z,12.97
2019-02-27T09:13:47.869Z,13.20
2019-02-27T09:16:29.172Z,13.20
2019-02-27T09:21:51.391Z,11.97
2019-02-27T09:24:32.332Z,11.03
2019-02-27T09:27:13.000Z,13.50
2019-02-27T09:29:54.838Z,10.27
2019-02-27T09:32:43.324Z,12.27
2019-02-27T09:35:25.749Z,11.83
2019-02-27T09:38:08.608Z,12.03
2019-02-27T09:40:49.004Z,12.10
2019-02-27T09:43:32.132Z,11.80
2019-02-27T09:46:12.878Z,13.30
2019-02-27T09:48:55.788Z,13.40
2019-02-27T09:51:25.219Z,13.53
2019-02-27T09:54:14.017Z,13.23
2019-02-27T09:57:02.897Z,12.23
2019-02-27T09:59:44.930Z,13.00
2019-02-27T10:02:14.398Z,12.80
2019-02-27T10:05:03.825Z,13.00
2019-02-27T10:07:34.282Z,12.50
2019-02-27T10:10:22.939Z,11.47
2019-02-27T10:13:04.128Z,10.83
2019-02-27T10:15:34.458Z,12.33
2019-02-27T10:18:23.731Z,12.63
2019-02-27T10:21:05.079Z,11.77
2019-02-27T10:23:47.724Z,13.67
2019-02-27T10:26:28.359Z,13.77
2019-02-27T10:29:10.968Z,13.37
2019-02-27T10:31:51.862Z,12.80
2019-02-27T10:34:32.638Z,14.77
2019-02-27T10:37:16.520Z,10.93
2019-02-27T10:39:56.339Z,9.20
2019-02-27T10:42:37.811Z,7.50
2019-02-27T10:45:19.226Z,7.37
2019-02-27T10:48:00.312Z,7.60
2019-02-27T10:50:41.045Z,6.87
2019-02-27T10:53:26.745Z,6.97
2019-02-27T10:56:04.813Z,6.53
2019-02-27T10:58:45.047Z,7.27
2019-02-27T11:01:36.439Z,6.60
2019-02-27T11:04:05.574Z,6.17
2019-02-27T11:06:54.001Z,6.27
2019-02-27T11:09:34.740Z,6.23
2019-02-27T11:12:15.345Z,5.00
2019-02-27T11:14:56.801Z,6.23
2019-02-27T11:17:37.702Z,5.97
2019-02-27T11:20:21.055Z,5.80
2019-02-27T11:23:06.746Z,6.10
2019-02-27T11:25:45.221Z,6.93
2019-02-27T11:28:24.823Z,7.57
2019-02-27T11:31:08.438Z,7.03
2019-02-27T11:33:48.659Z,7.13
2019-02-27T11:36:29.869Z,7.53
2019-02-27T11:39:11.043Z,7.67
2019-02-27T11:41:50.610Z,6.33
2019-02-27T11:44:20.021Z,7.00
2019-02-27T11:47:11.323Z,6.67
2019-02-27T11:49:54.696Z,26.00
2019-02-27T11:52:35.595Z,35.43
2019-02-27T11:55:16.927Z,36.73
2019-02-27T11:57:58.334Z,37.90
2019-02-27T12:00:39.667Z,37.90
2019-02-27T12:03:20.368Z,36.63
2019-02-27T12:06:01.850Z,37.00
2019-02-27T12:08:43.538Z,37.33
2019-02-27T12:11:24.708Z,37.90
2019-02-27T12:14:08.986Z,38.57
2019-02-27T12:16:51.734Z,38.77
2019-02-27T12:19:33.104Z,36.60
2019-02-27T12:22:14.437Z,36.17
2019-02-27T12:24:55.170Z,34.13
2019-02-27T12:27:48.251Z,35.47
2019-02-27T12:30:19.175Z,34.57
2019-02-27T12:33:00.630Z,31.57
2019-02-27T12:35:44.147Z,29.23
2019-02-27T12:38:24.350Z,29.63
2019-02-27T12:41:05.506Z,31.07
2019-02-27T12:43:52.161Z,30.03
2019-02-27T12:46:29.108Z,32.63
2019-02-27T12:48:58.570Z,31.37
2019-02-27T12:51:47.025Z,34.30
2019-02-27T12:54:35.443Z,33.20
2019-02-27T12:57:23.844Z,32.80
2019-02-27T13:00:05.805Z,32.07
2019-02-27T13:02:47.472Z,31.87
2019-02-27T13:05:28.783Z,32.90
2019-02-27T13:08:11.262Z,35.13
2019-02-27T13:10:52.429Z,35.27
2019-02-27T13:13:35.394Z,34.97
2019-02-27T13:17:02.035Z,34.87
2019-02-27T13:19:46.491Z,38.90
2019-02-27T13:22:29.171Z,40.87
2019-02-27T13:25:09.706Z,41.07
2019-02-27T13:27:51.017Z,41.27
2019-02-27T13:30:31.728Z,44.70
2019-02-27T13:33:13.287Z,46.97
2019-02-27T13:35:59.331Z,46.93
2019-02-27T13:38:37.292Z,50.20
2019-02-27T13:41:18.747Z,51.13
2019-02-27T13:44:01.341Z,51.03
2019-02-27T13:46:42.423Z,51.47
2019-02-27T13:49:23.438Z,53.30
2019-02-27T13:52:04.644Z,52.53
2019-02-27T13:54:46.112Z,51.77
2019-02-27T13:57:27.922Z,50.87
2019-02-27T14:00:09.383Z,53.30
2019-02-27T14:02:50.558Z,52.57
2019-02-27T14:05:51.054Z,53.03
2019-02-27T14:08:20.431Z,53.93
2019-02-27T14:14:11.042Z,50.53
2019-02-27T14:16:52.107Z,50.37
2019-02-27T14:19:33.535Z,48.93
2019-02-27T14:22:14.543Z,49.30
2019-02-27T14:24:55.870Z,49.00
2019-02-27T14:27:39.638Z,48.67
2019-02-27T14:30:20.365Z,49.50
2019-02-27T14:33:01.127Z,47.80
2019-02-27T14:35:40.677Z,46.07
2019-02-27T14:38:29.149Z,42.07
2019-02-27T14:41:11.142Z,43.13
2019-02-27T14:43:52.702Z,38.40
2019-02-27T14:46:34.223Z,38.07
2019-02-27T14:49:15.049Z,36.17
2019-02-27T14:51:56.114Z,31.53
2019-02-27T14:54:37.393Z,30.97
2019-02-27T14:57:19.026Z,27.83
2019-02-27T15:00:02.463Z,24.50
2019-02-27T15:02:42.373Z,23.73
2019-02-27T15:05:23.869Z,22.07
2019-02-27T15:08:04.948Z,20.10
2019-02-27T15:10:46.039Z,19.93
2019-02-27T15:13:29.161Z,16.37
2019-02-27T15:16:09.708Z,15.70
2019-02-27T15:18:54.785Z,14.73
2019-02-27T15:21:33.524Z,15.30
2019-02-27T15:24:14.928Z,13.13
2019-02-27T15:26:55.506Z,13.63
2019-02-27T15:29:36.926Z,14.10
2019-02-27T15:32:06.456Z,13.07
2019-02-27T15:34:54.858Z,12.93
2019-02-27T15:37:43.343Z,11.80
2019-02-27T15:40:28.622Z,12.10
2019-02-27T15:43:11.211Z,12.27
2019-02-27T15:45:50.617Z,12.33
2019-02-27T15:48:31.365Z,12.10
2019-02-27T15:51:12.845Z,12.10
2019-02-27T15:53:54.374Z,11.73
2019-02-27T15:56:35.164Z,10.23
2019-02-27T15:59:15.871Z,11.07
2019-02-27T16:02:02.409Z,10.00
2019-02-27T16:04:39.580Z,9.73
2019-02-27T16:07:20.687Z,10.30
2019-02-27T16:10:06.839Z,9.70
2019-02-27T16:12:45.131Z,9.20
2019-02-27T16:15:26.314Z,9.57
2019-02-27T16:18:07.502Z,11.20
2019-02-27T16:20:49.859Z,10.13
2019-02-27T16:23:32.020Z,9.43
2019-02-27T16:26:13.401Z,8.70
2019-02-27T16:28:54.916Z,8.33
2019-02-27T16:31:37.160Z,7.80
2019-02-27T16:34:17.758Z,8.27
2019-02-27T16:37:06.227Z,7.67
2019-02-27T16:39:55.351Z,7.10
2019-02-27T16:42:39.068Z,7.23
2019-02-27T16:45:21.127Z,7.90
2019-02-27T16:48:03.851Z,7.83
2019-02-27T16:50:45.666Z,7.10
2019-02-27T16:53:26.797Z,6.73
2019-02-27T16:56:11.448Z,9.63
2019-02-27T16:58:50.842Z,9.30
2019-02-27T17:01:32.140Z,6.60
2019-02-27T17:04:13.109Z,4.97
2019-02-27T17:06:54.493Z,5.20
2019-02-27T17:09:35.710Z,6.20
2019-02-27T17:12:17.195Z,5.90
2019-02-27T17:14:58.648Z,6.33
2019-02-27T17:17:40.716Z,6.77
2019-02-27T17:20:21.707Z,8.87
2019-02-27T17:23:07.684Z,9.50
2019-02-27T17:25:43.848Z,9.37
2019-02-27T17:28:25.338Z,8.93
2019-02-27T17:31:11.783Z,6.97
2019-02-27T17:33:49.105Z,6.93
2019-02-27T17:36:32.083Z,7.27
2019-02-27T17:39:13.224Z,8.43
2019-02-27T17:41:54.369Z,7.73
2019-02-27T17:44:35.342Z,7.60
2019-02-27T17:47:17.896Z,7.87
2019-02-27T17:49:58.728Z,8.67
2019-02-27T17:52:40.058Z,8.17
2019-02-27T17:55:21.299Z,6.87
2019-02-27T17:58:02.750Z,7.20
2019-02-27T18:00:49.801Z,7.70
2019-02-27T18:03:26.971Z,8.47
2019-02-27T18:06:08.314Z,9.00
2019-02-27T18:08:51.725Z,8.77
2019-02-27T18:11:33.974Z,8.20
2019-02-27T18:14:15.027Z,7.97
2019-02-27T18:16:59.306Z,7.60
2019-02-27T18:19:39.261Z,7.77
2019-02-27T18:22:18.970Z,6.80
2019-02-27T18:25:08.231Z,7.30
2019-02-27T18:27:50.863Z,6.67
2019-02-27T18:30:32.294Z,6.60
2019-02-27T18:33:13.981Z,8.00
2019-02-27T18:35:55.411Z,7.37
2019-02-27T18:38:36.227Z,7.20
2019-02-27T18:41:16.177Z,7.20
2019-02-27T18:43:55.810Z,7.27
2019-02-27T18:46:44.307Z,8.03
2019-02-27T18:49:25.936Z,6.60
2019-02-27T18:52:07.530Z,7.30
2019-02-27T18:54:54.702Z,7.70
2019-02-27T19:00:07.557Z,8.07
2019-02-27T19:02:37.095Z,8.30
2019-02-27T19:05:25.589Z,8.20
2019-02-27T19:08:33.160Z,8.30
2019-02-27T19:11:16.020Z,8.17
2019-02-27T19:13:57.626Z,8.67
2019-02-27T19:16:39.166Z,7.50
2019-02-27T19:19:20.461Z,7.03
2019-02-27T19:22:01.210Z,7.90
2019-02-27T19:24:32.432Z,8.07
2019-02-27T19:27:15.532Z,8.17
2019-02-27T19:29:56.754Z,8.13
2019-02-27T19:32:37.779Z,8.07
2019-02-27T19:35:21.679Z,8.43
2019-02-27T19:38:01.347Z,8.87
2019-02-27T19:40:31.358Z,8.17
2019-02-27T19:43:21.220Z,7.83
2019-02-27T19:46:12.774Z,9.07
2019-02-27T19:48:53.615Z,8.00
2019-02-27T19:51:23.539Z,9.60
2019-02-27T19:54:14.876Z,9.47
2019-02-27T19:57:07.917Z,9.03
2019-02-27T19:59:34.710Z,9.53
2019-02-27T20:02:04.933Z,9.60
2019-02-27T20:04:53.869Z,8.90
2019-02-27T20:07:24.185Z,8.63
2019-02-27T20:09:55.419Z,8.50
2019-02-27T20:12:26.191Z,8.73
2019-02-27T20:15:35.206Z,8.90
2019-02-27T20:18:08.412Z,8.67
2019-02-27T20:20:49.286Z,9.27
2019-02-27T20:23:30.277Z,9.03
2019-02-27T20:26:14.033Z,8.60
2019-02-27T20:28:53.801Z,9.77
2019-02-27T20:31:23.872Z,9.50
2019-02-27T20:34:12.794Z,10.13
2019-02-27T20:36:54.045Z,10.03
2019-02-27T20:39:36.161Z,9.03
2019-02-27T20:42:17.778Z,10.10
2019-02-27T20:44:59.416Z,10.63
2019-02-27T20:47:40.673Z,12.30
2019-02-27T20:50:34.168Z,11.87
2019-02-27T20:53:05.142Z,11.13
2019-02-27T20:55:46.061Z,12.10
2019-02-27T20:58:27.219Z,11.47
2019-02-27T21:01:11.097Z,11.80
2019-02-27T21:03:51.619Z,12.20
2019-02-27T21:06:32.693Z,10.03
2019-02-27T21:09:13.630Z,12.00
2019-02-27T21:11:55.147Z,10.37
2019-02-27T21:14:36.018Z,10.77
2019-02-27T21:17:21.137Z,11.60
2019-02-27T21:19:59.400Z,10.53
2019-02-27T21:22:40.901Z,11.00
2019-02-27T21:25:22.166Z,11.30
2019-02-27T21:28:06.621Z,10.87
2019-02-27T21:30:51.800Z,10.90
2019-02-27T21:33:29.415Z,11.10
2019-02-27T21:36:10.039Z,11.03
2019-02-27T21:38:51.481Z,11.30
2019-02-27T21:41:32.537Z,11.73
2019-02-27T21:44:25.059Z,11.23
2019-02-27T21:46:56.450Z,11.87
2019-02-27T21:49:37.093Z,12.70
2019-02-27T21:52:21.607Z,11.97
2019-02-27T21:55:01.648Z,12.07
2019-02-27T21:57:42.363Z,12.13
2019-02-27T22:00:24.057Z,11.80
2019-02-27T22:03:05.230Z,11.17
2019-02-27T22:05:46.965Z,10.30
2019-02-27T22:08:27.916Z,11.33
2019-02-27T22:11:09.084Z,11.73
2019-02-27T22:13:50.692Z,11.63
2019-02-27T22:16:31.648Z,11.60
2019-02-27T22:19:13.254Z,11.87
2019-02-27T22:21:54.786Z,13.13
2019-02-27T22:24:36.134Z,12.10
2019-02-27T22:27:17.570Z,12.60
2019-02-27T22:29:59.638Z,12.67
2019-02-27T22:32:40.719Z,13.03
2019-02-27T22:35:22.323Z,12.60
2019-02-27T22:38:03.360Z,12.43
2019-02-27T22:40:44.516Z,13.37
2019-02-27T22:43:25.964Z,14.17
2019-02-27T22:46:07.419Z,13.93
2019-02-27T22:48:48.793Z,13.53
2019-02-27T22:51:30.075Z,13.03
2019-02-27T22:54:11.301Z,13.00
2019-02-27T22:56:52.063Z,13.10
2019-02-27T22:59:21.573Z,15.00
2019-02-27T23:02:10.025Z,13.57
2019-02-27T23:05:01.169Z,14.13
2019-02-27T23:07:41.441Z,13.47
2019-02-27T23:10:22.820Z,14.93
2019-02-27T23:13:04.185Z,15.13
2019-02-27T23:15:44.818Z,15.40
2019-02-27T23:18:25.591Z,14.87
2019-02-27T23:21:06.325Z,15.70
2019-02-27T23:23:47.041Z,15.67
2019-02-27T23:26:28.276Z,15.70
2019-02-27T23:29:09.950Z,15.00
2019-02-27T23:31:54.696Z,16.30
2019-02-27T23:34:33.765Z,15.93
2019-02-27T23:37:14.709Z,15.90
2019-02-27T23:39:55.750Z,15.77
2019-02-27T23:42:36.849Z,16.10
2019-02-27T23:45:18.113Z,15.60
2019-02-27T23:47:59.297Z,17.13
2019-02-27T23:50:42.642Z,16.50
2019-02-27T23:53:27.183Z,17.37
2019-02-27T23:56:07.862Z,16.90
2019-02-27T23:58:49.201Z,16.77
